sensor_id;sensor_type;location;lat;lon;timestamp;temperature;humidity
24148;DHT22;12309;51.450;-2.624;2023-03-01T00:01:22;7.70;99.90
24148;DHT22;12309;51.450;-2.624;2023-03-01T00:03:49;7.20;99.90
24148;DHT22;12309;51.450;-2.624;2023-03-01T00:06:14;7.40;99.90
24148;DHT22;12309;51.450;-2.624;2023-03-01T00:08:40;7.80;99.90
24148;DHT22;12309;51.450;-2.624;2023-03-01T00:11:22;7.30;99.90
24148;DHT22;12309;51.450;-2.624;2023-03-01T00:13:50;7.20;99.90
24148;DHT22;12309;51.450;-2.624;2023-03-01T00:16:28;7.20;99.90
24148;DHT22;12309;51.450;-2.624;2023-03-01T00:18:55;7.80;99.90
24148;DHT22;12309;51.450;-2.624;2023-03-01T00:21:21;7.30;99.90
24148;DHT22;12309;51.450;-2.624;2023-03-01T00:23:48;7.40;99.90
24148;DHT22;12309;51.450;-2.624;2023-03-01T00:26:14;7.20;99.90
24148;DHT22;12309;51.450;-2.624;2023-03-01T00:28:41;7.10;99.90
24148;DHT22;12309;51.450;-2.624;2023-03-01T00:31:13;7.20;99.90
24148;DHT22;12309;51.450;-2.624;2023-03-01T00:33:39;7.00;99.90
24148;DHT22;12309;51.450;-2.624;2023-03-01T00:36:06;7.00;99.90
24148;DHT22;12309;51.450;-2.624;2023-03-01T00:38:38;7.10;99.90
24148;DHT22;12309;51.450;-2.624;2023-03-01T00:41:10;7.00;99.90
24148;DHT22;12309;51.450;-2.624;2023-03-01T00:43:37;7.00;99.90
24148;DHT22;12309;51.450;-2.624;2023-03-01T00:46:05;7.10;99.90
24148;DHT22;12309;51.450;-2.624;2023-03-01T00:48:31;7.10;99.90
24148;DHT22;12309;51.450;-2.624;2023-03-01T00:50:57;7.00;99.90
24148;DHT22;12309;51.450;-2.624;2023-03-01T00:53:22;7.00;99.90
24148;DHT22;12309;51.450;-2.624;2023-03-01T00:55:48;7.10;99.90
24148;DHT22;12309;51.450;-2.624;2023-03-01T00:58:13;7.10;99.90
24148;DHT22;12309;51.450;-2.624;2023-03-01T01:00:39;6.90;99.90
24148;DHT22;12309;51.450;-2.624;2023-03-01T01:03:04;7.10;99.90
24148;DHT22;12309;51.450;-2.624;2023-03-01T01:05:30;7.00;99.90
24148;DHT22;12309;51.450;-2.624;2023-03-01T01:10:22;7.00;99.90
24148;DHT22;12309;51.450;-2.624;2023-03-01T01:12:47;7.10;99.90
24148;DHT22;12309;51.450;-2.624;2023-03-01T01:15:13;7.00;99.90
24148;DHT22;12309;51.450;-2.624;2023-03-01T01:17:41;6.90;99.90
24148;DHT22;12309;51.450;-2.624;2023-03-01T01:20:08;7.00;99.90
24148;DHT22;12309;51.450;-2.624;2023-03-01T01:22:34;7.00;99.90
24148;DHT22;12309;51.450;-2.624;2023-03-01T01:24:59;7.00;99.90
24148;DHT22;12309;51.450;-2.624;2023-03-01T01:27:25;7.00;99.90
24148;DHT22;12309;51.450;-2.624;2023-03-01T01:29:52;7.00;99.90
24148;DHT22;12309;51.450;-2.624;2023-03-01T01:32:18;7.00;99.90
24148;DHT22;12309;51.450;-2.624;2023-03-01T01:34:44;7.00;99.90
24148;DHT22;12309;51.450;-2.624;2023-03-01T01:37:09;6.90;99.90
24148;DHT22;12309;51.450;-2.624;2023-03-01T01:39:35;7.00;99.90
24148;DHT22;12309;51.450;-2.624;2023-03-01T01:42:01;7.10;99.90
24148;DHT22;12309;51.450;-2.624;2023-03-01T01:44:28;7.10;99.90
24148;DHT22;12309;51.450;-2.624;2023-03-01T01:47:00;7.00;99.90
24148;DHT22;12309;51.450;-2.624;2023-03-01T01:52:07;7.00;99.90
24148;DHT22;12309;51.450;-2.624;2023-03-01T01:54:41;7.00;99.90
24148;DHT22;12309;51.450;-2.624;2023-03-01T01:57:14;7.00;99.90
24148;DHT22;12309;51.450;-2.624;2023-03-01T01:59:43;6.90;99.90
24148;DHT22;12309;51.450;-2.624;2023-03-01T02:02:11;7.00;99.90
24148;DHT22;12309;51.450;-2.624;2023-03-01T02:04:38;6.80;99.90
24148;DHT22;12309;51.450;-2.624;2023-03-01T02:07:16;6.90;99.90
24148;DHT22;12309;51.450;-2.624;2023-03-01T02:09:46;6.90;99.90
24148;DHT22;12309;51.450;-2.624;2023-03-01T02:12:16;6.90;99.90
24148;DHT22;12309;51.450;-2.624;2023-03-01T02:14:43;6.90;99.90
24148;DHT22;12309;51.450;-2.624;2023-03-01T02:17:10;6.90;99.90
24148;DHT22;12309;51.450;-2.624;2023-03-01T02:22:30;7.00;99.90
24148;DHT22;12309;51.450;-2.624;2023-03-01T02:30:35;6.60;99.90
24148;DHT22;12309;51.450;-2.624;2023-03-01T02:33:03;6.70;99.90
24148;DHT22;12309;51.450;-2.624;2023-03-01T02:35:38;6.60;99.90
24148;DHT22;12309;51.450;-2.624;2023-03-01T02:38:06;6.60;99.90
24148;DHT22;12309;51.450;-2.624;2023-03-01T02:40:34;6.30;99.90
24148;DHT22;12309;51.450;-2.624;2023-03-01T02:43:01;6.80;99.90
24148;DHT22;12309;51.450;-2.624;2023-03-01T02:45:29;6.50;99.90
24148;DHT22;12309;51.450;-2.624;2023-03-01T02:47:56;6.50;99.90
24148;DHT22;12309;51.450;-2.624;2023-03-01T02:55:44;6.50;99.90
24148;DHT22;12309;51.450;-2.624;2023-03-01T02:58:10;6.60;99.90
24148;DHT22;12309;51.450;-2.624;2023-03-01T03:00:39;6.40;99.90
24148;DHT22;12309;51.450;-2.624;2023-03-01T03:03:12;6.50;99.90
24148;DHT22;12309;51.450;-2.624;2023-03-01T03:08:05;6.50;99.90
24148;DHT22;12309;51.450;-2.624;2023-03-01T03:10:35;6.40;99.90
24148;DHT22;12309;51.450;-2.624;2023-03-01T03:13:04;6.50;99.90
24148;DHT22;12309;51.450;-2.624;2023-03-01T03:15:31;5.70;99.90
24148;DHT22;12309;51.450;-2.624;2023-03-01T03:17:58;6.70;99.90
24148;DHT22;12309;51.450;-2.624;2023-03-01T03:20:25;6.50;99.90
24148;DHT22;12309;51.450;-2.624;2023-03-01T03:22:53;6.50;99.90
24148;DHT22;12309;51.450;-2.624;2023-03-01T03:25:20;6.80;99.90
24148;DHT22;12309;51.450;-2.624;2023-03-01T03:27:47;6.50;99.90
24148;DHT22;12309;51.450;-2.624;2023-03-01T03:30:18;6.50;99.90
24148;DHT22;12309;51.450;-2.624;2023-03-01T03:32:46;6.30;99.90
24148;DHT22;12309;51.450;-2.624;2023-03-01T03:35:25;6.50;99.90
24148;DHT22;12309;51.450;-2.624;2023-03-01T03:37:52;6.40;99.90
24148;DHT22;12309;51.450;-2.624;2023-03-01T03:40:41;6.50;99.90
24148;DHT22;12309;51.450;-2.624;2023-03-01T03:43:09;6.50;99.90
24148;DHT22;12309;51.450;-2.624;2023-03-01T03:45:36;6.50;99.90
24148;DHT22;12309;51.450;-2.624;2023-03-01T03:48:03;6.50;99.90
24148;DHT22;12309;51.450;-2.624;2023-03-01T03:52:55;6.50;99.90
24148;DHT22;12309;51.450;-2.624;2023-03-01T03:55:21;6.50;99.90
24148;DHT22;12309;51.450;-2.624;2023-03-01T03:57:47;6.30;99.90
24148;DHT22;12309;51.450;-2.624;2023-03-01T04:00:18;6.50;99.90
24148;DHT22;12309;51.450;-2.624;2023-03-01T04:02:45;6.50;99.90
24148;DHT22;12309;51.450;-2.624;2023-03-01T04:05:13;6.30;99.90
24148;DHT22;12309;51.450;-2.624;2023-03-01T04:07:40;7.30;99.90
24148;DHT22;12309;51.450;-2.624;2023-03-01T04:10:10;6.50;99.90
24148;DHT22;12309;51.450;-2.624;2023-03-01T04:12:36;6.50;99.90
24148;DHT22;12309;51.450;-2.624;2023-03-01T04:15:03;6.50;99.90
24148;DHT22;12309;51.450;-2.624;2023-03-01T04:17:45;6.50;99.90
24148;DHT22;12309;51.450;-2.624;2023-03-01T04:20:15;6.50;99.90
24148;DHT22;12309;51.450;-2.624;2023-03-01T04:22:46;6.60;99.90
24148;DHT22;12309;51.450;-2.624;2023-03-01T04:25:12;6.30;99.90
24148;DHT22;12309;51.450;-2.624;2023-03-01T04:27:40;6.50;99.90
24148;DHT22;12309;51.450;-2.624;2023-03-01T04:30:06;6.40;99.90
24148;DHT22;12309;51.450;-2.624;2023-03-01T04:32:32;6.50;99.90
24148;DHT22;12309;51.450;-2.624;2023-03-01T04:34:59;6.50;99.90
24148;DHT22;12309;51.450;-2.624;2023-03-01T04:37:25;6.50;99.90
24148;DHT22;12309;51.450;-2.624;2023-03-01T04:39:51;6.40;99.90
24148;DHT22;12309;51.450;-2.624;2023-03-01T04:42:17;6.50;99.90
24148;DHT22;12309;51.450;-2.624;2023-03-01T04:44:44;6.50;99.90
24148;DHT22;12309;51.450;-2.624;2023-03-01T04:49:36;6.40;99.90
24148;DHT22;12309;51.450;-2.624;2023-03-01T04:52:02;6.40;99.90
24148;DHT22;12309;51.450;-2.624;2023-03-01T04:54:29;6.40;99.90
24148;DHT22;12309;51.450;-2.624;2023-03-01T04:56:55;6.40;99.90
24148;DHT22;12309;51.450;-2.624;2023-03-01T04:59:21;6.40;99.90
24148;DHT22;12309;51.450;-2.624;2023-03-01T05:01:50;6.40;99.90
24148;DHT22;12309;51.450;-2.624;2023-03-01T05:04:16;6.40;99.90
24148;DHT22;12309;51.450;-2.624;2023-03-01T05:06:42;6.60;99.90
24148;DHT22;12309;51.450;-2.624;2023-03-01T05:09:08;6.40;99.90
24148;DHT22;12309;51.450;-2.624;2023-03-01T05:14:07;6.40;99.90
24148;DHT22;12309;51.450;-2.624;2023-03-01T05:16:34;6.40;99.90
24148;DHT22;12309;51.450;-2.624;2023-03-01T05:19:01;6.40;99.90
24148;DHT22;12309;51.450;-2.624;2023-03-01T05:21:39;7.60;99.90
24148;DHT22;12309;51.450;-2.624;2023-03-01T05:24:25;6.30;99.90
24148;DHT22;12309;51.450;-2.624;2023-03-01T05:26:51;6.20;99.90
24148;DHT22;12309;51.450;-2.624;2023-03-01T05:29:20;6.30;99.90
24148;DHT22;12309;51.450;-2.624;2023-03-01T05:31:57;7.60;99.90
24148;DHT22;12309;51.450;-2.624;2023-03-01T05:34:27;6.10;99.90
24148;DHT22;12309;51.450;-2.624;2023-03-01T05:36:53;6.30;99.90
24148;DHT22;12309;51.450;-2.624;2023-03-01T05:39:20;6.30;99.90
24148;DHT22;12309;51.450;-2.624;2023-03-01T05:41:53;6.30;99.90
24148;DHT22;12309;51.450;-2.624;2023-03-01T05:44:19;6.40;99.90
24148;DHT22;12309;51.450;-2.624;2023-03-01T05:46:44;6.30;99.90
24148;DHT22;12309;51.450;-2.624;2023-03-01T05:49:11;6.20;99.90
24148;DHT22;12309;51.450;-2.624;2023-03-01T05:51:39;6.30;99.90
24148;DHT22;12309;51.450;-2.624;2023-03-01T05:54:04;6.20;99.90
24148;DHT22;12309;51.450;-2.624;2023-03-01T05:56:36;6.30;99.90
24148;DHT22;12309;51.450;-2.624;2023-03-01T05:59:03;6.20;99.90
24148;DHT22;12309;51.450;-2.624;2023-03-01T06:01:30;6.20;99.90
24148;DHT22;12309;51.450;-2.624;2023-03-01T06:03:56;6.20;99.90
24148;DHT22;12309;51.450;-2.624;2023-03-01T06:06:22;6.20;99.90
24148;DHT22;12309;51.450;-2.624;2023-03-01T06:08:49;6.40;99.90
24148;DHT22;12309;51.450;-2.624;2023-03-01T06:13:42;6.20;99.90
24148;DHT22;12309;51.450;-2.624;2023-03-01T06:16:08;6.10;99.90
24148;DHT22;12309;51.450;-2.624;2023-03-01T06:18:35;6.00;99.90
24148;DHT22;12309;51.450;-2.624;2023-03-01T06:21:01;6.00;99.90
24148;DHT22;12309;51.450;-2.624;2023-03-01T06:23:26;6.10;99.90
24148;DHT22;12309;51.450;-2.624;2023-03-01T06:25:52;6.30;99.90
24148;DHT22;12309;51.450;-2.624;2023-03-01T06:28:18;6.00;99.90
24148;DHT22;12309;51.450;-2.624;2023-03-01T06:30:43;6.10;99.90
24148;DHT22;12309;51.450;-2.624;2023-03-01T06:33:09;6.00;99.90
24148;DHT22;12309;51.450;-2.624;2023-03-01T06:35:35;6.10;99.90
24148;DHT22;12309;51.450;-2.624;2023-03-01T06:38:02;6.10;99.90
24148;DHT22;12309;51.450;-2.624;2023-03-01T06:40:28;6.10;99.90
24148;DHT22;12309;51.450;-2.624;2023-03-01T06:42:54;6.00;99.90
24148;DHT22;12309;51.450;-2.624;2023-03-01T06:45:20;6.10;99.90
24148;DHT22;12309;51.450;-2.624;2023-03-01T06:47:46;5.80;99.90
24148;DHT22;12309;51.450;-2.624;2023-03-01T06:50:13;6.00;99.90
24148;DHT22;12309;51.450;-2.624;2023-03-01T06:52:38;6.10;99.90
24148;DHT22;12309;51.450;-2.624;2023-03-01T06:55:05;6.00;99.90
24148;DHT22;12309;51.450;-2.624;2023-03-01T06:57:31;6.00;99.90
24148;DHT22;12309;51.450;-2.624;2023-03-01T06:59:56;6.00;99.90
24148;DHT22;12309;51.450;-2.624;2023-03-01T07:02:22;5.80;99.90
24148;DHT22;12309;51.450;-2.624;2023-03-01T07:04:51;6.10;99.90
24148;DHT22;12309;51.450;-2.624;2023-03-01T07:07:18;6.10;99.90
24148;DHT22;12309;51.450;-2.624;2023-03-01T07:09:48;6.10;99.90
24148;DHT22;12309;51.450;-2.624;2023-03-01T07:12:14;6.10;99.90
24148;DHT22;12309;51.450;-2.624;2023-03-01T07:14:39;5.70;99.90
24148;DHT22;12309;51.450;-2.624;2023-03-01T07:17:05;6.10;99.90
24148;DHT22;12309;51.450;-2.624;2023-03-01T07:19:31;6.60;99.90
24148;DHT22;12309;51.450;-2.624;2023-03-01T07:21:57;6.10;99.90
24148;DHT22;12309;51.450;-2.624;2023-03-01T07:24:23;6.20;99.90
24148;DHT22;12309;51.450;-2.624;2023-03-01T07:26:50;6.20;99.90
24148;DHT22;12309;51.450;-2.624;2023-03-01T07:29:15;6.40;99.90
24148;DHT22;12309;51.450;-2.624;2023-03-01T07:31:41;6.20;99.90
24148;DHT22;12309;51.450;-2.624;2023-03-01T07:34:07;6.30;99.90
24148;DHT22;12309;51.450;-2.624;2023-03-01T07:36:32;6.30;99.90
24148;DHT22;12309;51.450;-2.624;2023-03-01T07:38:58;6.40;99.90
24148;DHT22;12309;51.450;-2.624;2023-03-01T07:41:24;6.40;99.90
24148;DHT22;12309;51.450;-2.624;2023-03-01T07:43:50;6.40;99.90
24148;DHT22;12309;51.450;-2.624;2023-03-01T07:46:15;6.20;99.90
24148;DHT22;12309;51.450;-2.624;2023-03-01T07:48:41;6.40;99.90
24148;DHT22;12309;51.450;-2.624;2023-03-01T07:51:07;6.50;99.90
24148;DHT22;12309;51.450;-2.624;2023-03-01T07:53:33;6.50;99.90
24148;DHT22;12309;51.450;-2.624;2023-03-01T07:56:07;6.60;99.90
24148;DHT22;12309;51.450;-2.624;2023-03-01T07:58:38;6.60;99.90
24148;DHT22;12309;51.450;-2.624;2023-03-01T08:01:09;6.70;99.90
24148;DHT22;12309;51.450;-2.624;2023-03-01T08:03:35;6.80;99.90
24148;DHT22;12309;51.450;-2.624;2023-03-01T08:06:03;7.10;99.90
24148;DHT22;12309;51.450;-2.624;2023-03-01T08:08:29;6.90;99.90
24148;DHT22;12309;51.450;-2.624;2023-03-01T08:10:59;7.10;99.90
24148;DHT22;12309;51.450;-2.624;2023-03-01T08:13:26;7.00;99.90
24148;DHT22;12309;51.450;-2.624;2023-03-01T08:15:52;7.00;99.90
24148;DHT22;12309;51.450;-2.624;2023-03-01T08:18:19;7.10;99.90
24148;DHT22;12309;51.450;-2.624;2023-03-01T08:20:45;7.10;99.90
24148;DHT22;12309;51.450;-2.624;2023-03-01T08:23:11;7.20;99.90
24148;DHT22;12309;51.450;-2.624;2023-03-01T08:25:38;7.30;99.90
24148;DHT22;12309;51.450;-2.624;2023-03-01T08:28:04;7.20;99.90
24148;DHT22;12309;51.450;-2.624;2023-03-01T08:30:30;7.40;99.90
24148;DHT22;12309;51.450;-2.624;2023-03-01T08:32:56;7.50;99.90
24148;DHT22;12309;51.450;-2.624;2023-03-01T08:35:21;7.30;99.90
24148;DHT22;12309;51.450;-2.624;2023-03-01T08:37:47;7.30;99.90
24148;DHT22;12309;51.450;-2.624;2023-03-01T08:40:13;7.50;99.90
24148;DHT22;12309;51.450;-2.624;2023-03-01T08:42:40;7.60;99.90
24148;DHT22;12309;51.450;-2.624;2023-03-01T08:45:07;7.60;99.90
24148;DHT22;12309;51.450;-2.624;2023-03-01T08:47:33;7.50;99.90
24148;DHT22;12309;51.450;-2.624;2023-03-01T08:49:59;7.70;99.90
24148;DHT22;12309;51.450;-2.624;2023-03-01T08:52:25;7.70;99.90
24148;DHT22;12309;51.450;-2.624;2023-03-01T08:54:52;7.80;99.90
24148;DHT22;12309;51.450;-2.624;2023-03-01T08:57:18;7.90;99.90
24148;DHT22;12309;51.450;-2.624;2023-03-01T08:59:43;7.70;99.90
24148;DHT22;12309;51.450;-2.624;2023-03-01T09:02:13;7.90;99.90
24148;DHT22;12309;51.450;-2.624;2023-03-01T09:04:39;8.00;99.90
24148;DHT22;12309;51.450;-2.624;2023-03-01T09:07:05;7.90;99.90
24148;DHT22;12309;51.450;-2.624;2023-03-01T09:09:30;7.90;99.90
24148;DHT22;12309;51.450;-2.624;2023-03-01T09:11:56;8.30;99.90
24148;DHT22;12309;51.450;-2.624;2023-03-01T09:14:22;8.60;99.90
24148;DHT22;12309;51.450;-2.624;2023-03-01T09:16:48;8.60;99.90
24148;DHT22;12309;51.450;-2.624;2023-03-01T09:19:13;8.90;99.90
24148;DHT22;12309;51.450;-2.624;2023-03-01T09:21:39;9.10;99.90
24148;DHT22;12309;51.450;-2.624;2023-03-01T09:24:07;9.10;99.90
24148;DHT22;12309;51.450;-2.624;2023-03-01T09:26:36;9.30;99.90
24148;DHT22;12309;51.450;-2.624;2023-03-01T09:29:02;8.90;99.90
24148;DHT22;12309;51.450;-2.624;2023-03-01T09:31:28;10.10;99.90
24148;DHT22;12309;51.450;-2.624;2023-03-01T09:33:54;9.60;99.90
24148;DHT22;12309;51.450;-2.624;2023-03-01T09:36:22;10.60;99.90
24148;DHT22;12309;51.450;-2.624;2023-03-01T09:38:48;11.70;99.90
24148;DHT22;12309;51.450;-2.624;2023-03-01T09:43:51;10.90;99.90
24148;DHT22;12309;51.450;-2.624;2023-03-01T09:46:24;10.30;99.90
24148;DHT22;12309;51.450;-2.624;2023-03-01T09:48:55;10.10;99.90
24148;DHT22;12309;51.450;-2.624;2023-03-01T09:51:33;9.70;99.90
24148;DHT22;12309;51.450;-2.624;2023-03-01T09:54:01;9.10;99.90
24148;DHT22;12309;51.450;-2.624;2023-03-01T09:56:36;9.00;99.90
24148;DHT22;12309;51.450;-2.624;2023-03-01T09:59:26;8.70;99.90
24148;DHT22;12309;51.450;-2.624;2023-03-01T10:02:00;8.60;99.90
24148;DHT22;12309;51.450;-2.624;2023-03-01T10:09:34;8.60;99.90
24148;DHT22;12309;51.450;-2.624;2023-03-01T10:12:02;9.60;99.90
24148;DHT22;12309;51.450;-2.624;2023-03-01T10:17:17;12.10;99.90
24148;DHT22;12309;51.450;-2.624;2023-03-01T10:19:46;12.30;99.90
24148;DHT22;12309;51.450;-2.624;2023-03-01T10:22:24;13.10;99.90
24148;DHT22;12309;51.450;-2.624;2023-03-01T10:24:54;12.90;99.90
24148;DHT22;12309;51.450;-2.624;2023-03-01T10:27:24;11.90;99.90
24148;DHT22;12309;51.450;-2.624;2023-03-01T10:30:02;10.80;99.90
24148;DHT22;12309;51.450;-2.624;2023-03-01T10:32:31;10.30;99.90
24148;DHT22;12309;51.450;-2.624;2023-03-01T10:34:57;9.80;99.90
24148;DHT22;12309;51.450;-2.624;2023-03-01T10:37:22;9.30;99.90
24148;DHT22;12309;51.450;-2.624;2023-03-01T10:42:37;9.10;99.90
24148;DHT22;12309;51.450;-2.624;2023-03-01T10:47:45;9.00;99.90
24148;DHT22;12309;51.450;-2.624;2023-03-01T10:50:22;8.80;99.90
24148;DHT22;12309;51.450;-2.624;2023-03-01T10:52:59;8.70;99.90
24148;DHT22;12309;51.450;-2.624;2023-03-01T11:03:16;8.50;99.90
24148;DHT22;12309;51.450;-2.624;2023-03-01T11:06:01;8.70;99.90
24148;DHT22;12309;51.450;-2.624;2023-03-01T11:08:39;8.90;99.90
24148;DHT22;12309;51.450;-2.624;2023-03-01T11:11:33;9.10;99.90
24148;DHT22;12309;51.450;-2.624;2023-03-01T11:16:42;9.60;99.90
24148;DHT22;12309;51.450;-2.624;2023-03-01T11:21:43;9.70;99.90
24148;DHT22;12309;51.450;-2.624;2023-03-01T11:24:14;9.90;99.90
24148;DHT22;12309;51.450;-2.624;2023-03-01T11:26:45;10.10;99.90
24148;DHT22;12309;51.450;-2.624;2023-03-01T11:29:35;10.00;99.90
24148;DHT22;12309;51.450;-2.624;2023-03-01T11:32:06;9.90;99.90
24148;DHT22;12309;51.450;-2.624;2023-03-01T11:35:14;9.80;99.90
24148;DHT22;12309;51.450;-2.624;2023-03-01T11:40:32;9.60;99.90
24148;DHT22;12309;51.450;-2.624;2023-03-01T11:54:45;10.30;99.90
24148;DHT22;12309;51.450;-2.624;2023-03-01T11:58:01;10.10;99.90
24148;DHT22;12309;51.450;-2.624;2023-03-01T12:12:40;10.40;99.90
24148;DHT22;12309;51.450;-2.624;2023-03-01T12:21:10;10.40;99.90
24148;DHT22;12309;51.450;-2.624;2023-03-01T12:26:35;9.90;99.90
24148;DHT22;12309;51.450;-2.624;2023-03-01T12:40:32;8.80;99.90
24148;DHT22;12309;51.450;-2.624;2023-03-01T12:46:10;9.80;99.90
24148;DHT22;12309;51.450;-2.624;2023-03-01T12:49:12;9.80;99.90
24148;DHT22;12309;51.450;-2.624;2023-03-01T12:51:40;9.70;99.90
24148;DHT22;12309;51.450;-2.624;2023-03-01T12:54:19;9.70;99.90
24148;DHT22;12309;51.450;-2.624;2023-03-01T12:56:48;9.70;99.90
24148;DHT22;12309;51.450;-2.624;2023-03-01T12:59:38;9.50;99.90
24148;DHT22;12309;51.450;-2.624;2023-03-01T13:07:36;10.70;99.90
24148;DHT22;12309;51.450;-2.624;2023-03-01T13:17:51;9.10;99.90
24148;DHT22;12309;51.450;-2.624;2023-03-01T13:20:31;9.10;99.90
24148;DHT22;12309;51.450;-2.624;2023-03-01T13:33:44;9.40;99.90
24148;DHT22;12309;51.450;-2.624;2023-03-01T13:36:11;9.30;99.90
24148;DHT22;12309;51.450;-2.624;2023-03-01T13:49:49;9.80;99.90
24148;DHT22;12309;51.450;-2.624;2023-03-01T13:52:40;10.00;99.90
24148;DHT22;12309;51.450;-2.624;2023-03-01T13:57:39;9.90;99.90
24148;DHT22;12309;51.450;-2.624;2023-03-01T14:00:07;9.80;99.90
24148;DHT22;12309;51.450;-2.624;2023-03-01T14:03:20;9.50;99.90
24148;DHT22;12309;51.450;-2.624;2023-03-01T14:09:09;9.40;99.90
24148;DHT22;12309;51.450;-2.624;2023-03-01T14:20:00;9.40;99.90
24148;DHT22;12309;51.450;-2.624;2023-03-01T14:22:32;9.20;99.90
24148;DHT22;12309;51.450;-2.624;2023-03-01T14:25:00;9.40;99.90
24148;DHT22;12309;51.450;-2.624;2023-03-01T14:27:35;9.20;99.90
24148;DHT22;12309;51.450;-2.624;2023-03-01T14:30:12;10.00;99.90
24148;DHT22;12309;51.450;-2.624;2023-03-01T14:32:39;9.60;99.90
24148;DHT22;12309;51.450;-2.624;2023-03-01T14:35:21;9.70;99.90
24148;DHT22;12309;51.450;-2.624;2023-03-01T14:37:47;9.90;99.90
24148;DHT22;12309;51.450;-2.624;2023-03-01T14:40:41;9.70;99.90
24148;DHT22;12309;51.450;-2.624;2023-03-01T14:43:13;10.10;99.90
24148;DHT22;12309;51.450;-2.624;2023-03-01T14:45:47;10.00;99.90
24148;DHT22;12309;51.450;-2.624;2023-03-01T14:48:14;10.30;99.90
24148;DHT22;12309;51.450;-2.624;2023-03-01T14:50:41;10.00;99.90
24148;DHT22;12309;51.450;-2.624;2023-03-01T14:53:25;10.00;99.90
24148;DHT22;12309;51.450;-2.624;2023-03-01T14:55:54;10.10;99.90
24148;DHT22;12309;51.450;-2.624;2023-03-01T14:58:24;10.00;99.90
24148;DHT22;12309;51.450;-2.624;2023-03-01T15:00:56;10.00;99.90
24148;DHT22;12309;51.450;-2.624;2023-03-01T15:03:48;9.90;99.90
24148;DHT22;12309;51.450;-2.624;2023-03-01T15:06:20;9.80;99.90
24148;DHT22;12309;51.450;-2.624;2023-03-01T15:08:52;9.90;99.90
24148;DHT22;12309;51.450;-2.624;2023-03-01T15:11:29;9.90;99.90
24148;DHT22;12309;51.450;-2.624;2023-03-01T15:13:55;9.70;99.90
24148;DHT22;12309;51.450;-2.624;2023-03-01T15:16:30;9.80;99.90
24148;DHT22;12309;51.450;-2.624;2023-03-01T15:19:05;9.70;99.90
24148;DHT22;12309;51.450;-2.624;2023-03-01T15:21:37;9.60;99.90
24148;DHT22;12309;51.450;-2.624;2023-03-01T15:24:06;9.70;99.90
24148;DHT22;12309;51.450;-2.624;2023-03-01T15:26:42;9.40;99.90
24148;DHT22;12309;51.450;-2.624;2023-03-01T15:29:17;9.40;99.90
24148;DHT22;12309;51.450;-2.624;2023-03-01T15:31:52;9.60;99.90
24148;DHT22;12309;51.450;-2.624;2023-03-01T15:34:36;9.50;99.90
24148;DHT22;12309;51.450;-2.624;2023-03-01T15:37:32;9.50;99.90
24148;DHT22;12309;51.450;-2.624;2023-03-01T15:39:56;9.50;99.90
24148;DHT22;12309;51.450;-2.624;2023-03-01T15:47:54;9.60;99.90
24148;DHT22;12309;51.450;-2.624;2023-03-01T15:50:26;9.50;99.90
24148;DHT22;12309;51.450;-2.624;2023-03-01T15:52:53;9.60;99.90
24148;DHT22;12309;51.450;-2.624;2023-03-01T15:55:25;9.80;99.90
24148;DHT22;12309;51.450;-2.624;2023-03-01T15:58:13;9.80;99.90
24148;DHT22;12309;51.450;-2.624;2023-03-01T16:00:39;9.80;99.90
24148;DHT22;12309;51.450;-2.624;2023-03-01T16:03:05;9.60;99.90
24148;DHT22;12309;51.450;-2.624;2023-03-01T16:05:33;9.60;99.90
24148;DHT22;12309;51.450;-2.624;2023-03-01T16:08:00;9.50;99.90
24148;DHT22;12309;51.450;-2.624;2023-03-01T16:10:26;9.50;99.90
24148;DHT22;12309;51.450;-2.624;2023-03-01T16:12:53;9.50;99.90
24148;DHT22;12309;51.450;-2.624;2023-03-01T16:15:25;9.50;99.90
24148;DHT22;12309;51.450;-2.624;2023-03-01T16:17:51;9.50;99.90
24148;DHT22;12309;51.450;-2.624;2023-03-01T16:20:17;9.40;99.90
24148;DHT22;12309;51.450;-2.624;2023-03-01T16:22:44;9.40;99.90
24148;DHT22;12309;51.450;-2.624;2023-03-01T16:25:12;9.40;99.90
24148;DHT22;12309;51.450;-2.624;2023-03-01T16:27:38;9.30;99.90
24148;DHT22;12309;51.450;-2.624;2023-03-01T16:30:05;9.30;99.90
24148;DHT22;12309;51.450;-2.624;2023-03-01T16:32:31;9.30;99.90
24148;DHT22;12309;51.450;-2.624;2023-03-01T16:34:56;9.30;99.90
24148;DHT22;12309;51.450;-2.624;2023-03-01T16:39:48;9.10;99.90
24148;DHT22;12309;51.450;-2.624;2023-03-01T16:42:17;9.00;99.90
24148;DHT22;12309;51.450;-2.624;2023-03-01T16:44:43;9.10;99.90
24148;DHT22;12309;51.450;-2.624;2023-03-01T16:47:08;9.00;99.90
24148;DHT22;12309;51.450;-2.624;2023-03-01T16:49:34;9.00;99.90
24148;DHT22;12309;51.450;-2.624;2023-03-01T16:52:00;10.00;99.90
24148;DHT22;12309;51.450;-2.624;2023-03-01T16:54:25;9.10;99.90
24148;DHT22;12309;51.450;-2.624;2023-03-01T16:56:51;8.90;99.90
24148;DHT22;12309;51.450;-2.624;2023-03-01T16:59:16;8.80;99.90
24148;DHT22;12309;51.450;-2.624;2023-03-01T17:01:44;8.70;99.90
24148;DHT22;12309;51.450;-2.624;2023-03-01T17:04:11;8.70;99.90
24148;DHT22;12309;51.450;-2.624;2023-03-01T17:06:37;8.60;99.90
24148;DHT22;12309;51.450;-2.624;2023-03-01T17:09:03;8.60;99.90
24148;DHT22;12309;51.450;-2.624;2023-03-01T17:11:28;8.60;99.90
24148;DHT22;12309;51.450;-2.624;2023-03-01T17:13:54;8.60;99.90
24148;DHT22;12309;51.450;-2.624;2023-03-01T17:16:20;8.60;99.90
24148;DHT22;12309;51.450;-2.624;2023-03-01T17:18:47;8.60;99.90
24148;DHT22;12309;51.450;-2.624;2023-03-01T17:21:13;8.60;99.90
24148;DHT22;12309;51.450;-2.624;2023-03-01T17:23:41;8.50;99.90
24148;DHT22;12309;51.450;-2.624;2023-03-01T17:26:07;8.30;99.90
24148;DHT22;12309;51.450;-2.624;2023-03-01T17:28:34;8.30;99.90
24148;DHT22;12309;51.450;-2.624;2023-03-01T17:31:02;7.80;99.90
24148;DHT22;12309;51.450;-2.624;2023-03-01T17:33:28;8.10;99.90
24148;DHT22;12309;51.450;-2.624;2023-03-01T17:35:55;8.10;99.90
24148;DHT22;12309;51.450;-2.624;2023-03-01T17:38:21;8.00;99.90
24148;DHT22;12309;51.450;-2.624;2023-03-01T17:40:47;8.00;99.90
24148;DHT22;12309;51.450;-2.624;2023-03-01T17:43:14;8.00;99.90
24148;DHT22;12309;51.450;-2.624;2023-03-01T17:45:40;8.00;99.90
24148;DHT22;12309;51.450;-2.624;2023-03-01T17:48:08;8.00;99.90
24148;DHT22;12309;51.450;-2.624;2023-03-01T17:50:37;7.90;99.90
24148;DHT22;12309;51.450;-2.624;2023-03-01T17:53:03;8.00;99.90
24148;DHT22;12309;51.450;-2.624;2023-03-01T17:55:37;8.00;99.90
24148;DHT22;12309;51.450;-2.624;2023-03-01T17:58:04;7.90;99.90
24148;DHT22;12309;51.450;-2.624;2023-03-01T18:00:31;7.80;99.90
24148;DHT22;12309;51.450;-2.624;2023-03-01T18:02:56;7.90;99.90
24148;DHT22;12309;51.450;-2.624;2023-03-01T18:05:22;7.90;99.90
24148;DHT22;12309;51.450;-2.624;2023-03-01T18:07:49;8.00;99.90
24148;DHT22;12309;51.450;-2.624;2023-03-01T18:10:16;7.80;99.90
24148;DHT22;12309;51.450;-2.624;2023-03-01T18:12:41;7.90;99.90
24148;DHT22;12309;51.450;-2.624;2023-03-01T18:15:08;7.80;99.90
24148;DHT22;12309;51.450;-2.624;2023-03-01T18:19:59;7.90;99.90
24148;DHT22;12309;51.450;-2.624;2023-03-01T18:22:25;7.80;99.90
24148;DHT22;12309;51.450;-2.624;2023-03-01T18:24:51;7.70;99.90
24148;DHT22;12309;51.450;-2.624;2023-03-01T18:27:16;7.70;99.90
24148;DHT22;12309;51.450;-2.624;2023-03-01T18:29:43;7.70;99.90
24148;DHT22;12309;51.450;-2.624;2023-03-01T18:32:08;7.70;99.90